Weather observations for the past three days for
Pitt-Greenville Airport
Imperial (Metric)
Date Time (edt) Wind (mph) Vis. (mi.) Weather Sky Cond. Temperature (ºF) Relative Humidity Wind Chill (°F) Heat Index (°F) Pressure Precipitation (in)
Air Dwpt 6 hour altimeter (in) sea level (mb) 1 hr 3 hr 6 hr
Max. Min.
10 08:15 SW 2 10.00 Fair CLR 66.2 62.6 88% 29.96 0.0
10 07:55 W 2 10.00 Fair CLR 64.4 62.6 64.8 59.7 94% 29.95 0.0
10 07:35 SW 2 10.00 Fair CLR 64.4 62.6 94% 29.95 0.0
10 07:15 W 2 10.00 Fair CLR 62.6 60.8 94% 29.94 0.0
10 06:55 W 3 4.00 Fog/Mist CLR 62.6 60.8 94% 29.93 0.0
10 06:35 SW 2 0.75 Fog/Mist VV005 60.8 60.8 100% 29.93 0.0
10 06:15 SW 1 4.00 Fog/Mist CLR 60.8 60.8 100% 29.92 0.0
10 05:55 SW 2 6.00 Fog/Mist CLR 62.6 60.8 94% 29.91 0.0
10 05:35 Vrbl 1 6.00 Fog/Mist CLR 60.8 60.8 100% 29.91 0.0
10 05:15 S 3 6.00 Fog/Mist CLR 60.8 60.8 100% 29.9 0.0
10 04:55 S 2 0.75 Fog/Mist VV005 60.8 60.8 100% 29.89 0.0
10 04:35 S 2 5.00 Fog/Mist CLR 60.8 60.8 100% 29.89 0.0
10 04:15 SW 1 0.75 Fog/Mist VV005 60.8 60.8 100% 29.89 0.0
10 03:55 W 2 5.00 Fog/Mist CLR 62.6 60.8 94% 29.88 0.0
10 03:35 SW 2 4.00 Fog/Mist NULL 62.6 62.6 100% 29.88 0.0
09 23:55 SW 3 10.00 Fair CLR 62.6 60.8 94% 29.89 0.0
09 23:35 S 2 10.00 Fair CLR 62.6 62.6 100% 29.88 0.0
09 23:15 S 2 10.00 Fair CLR 62.6 60.8 94% 29.88 0.0
09 22:55 SW 3 5.00 Fog/Mist CLR 62.6 62.6 100% 29.88 0.0
09 22:35 S 1 10.00 Fair CLR 62.6 62.6 100% 29.87 0.0
09 22:15 S 3 10.00 Fair CLR 64.4 62.6 94% 29.88 0.0
09 21:55 Calm 10.00 Fair CLR 62.6 62.6 100% 29.87 0.0
09 21:35 W 1 10.00 Fair CLR 64.4 62.6 94% 29.87 0.0
09 21:15 SW 2 10.00 Fair CLR 64.4 62.6 94% 29.87 0.0
09 20:55 S 2 10.00 Fair CLR 66.2 62.6 88% 29.86 0.0
09 20:35 SW 3 10.00 Fair CLR 68 64.4 88% 29.86 0.0
09 20:15 S 2 10.00 Partly Cloudy SCT060 68 62.6 83% 29.85 0.0
09 19:55 S 1 10.00 Mostly Cloudy BKN060 69.8 62.6 76.8 69.4 78% 29.85 0.0
09 19:35 W 1 10.00 Partly Cloudy SCT060 71.6 60.8 69% 29.84 0.0
09 19:15 NW 1 10.00 A Few Clouds FEW060 73.4 60.8 65% 29.83 0.0
09 18:55 Vrbl 2 10.00 Fair CLR 73.4 60.8 65% 29.83 0.0
09 18:35 W 3 10.00 A Few Clouds FEW042 73.4 60.8 65% 29.83 0.0
09 18:15 W 6 10.00 Fair CLR 73.4 60.8 65% 29.83 0.0
09 17:55 SW 6 10.00 Fair CLR 73.4 60.8 65% 29.83 0.0
09 17:35 W 7 10.00 Partly Cloudy FEW048 SCT075 75.2 60.8 61% 77 29.83 0.0
09 17:15 SW 7 10.00 Mostly Cloudy BKN048 BKN060 BKN070 75.2 59 57% 78 29.83 0.0
09 16:55 SW 6 10.00 Overcast BKN050 OVC060 73.4 59 61% 29.83 0.0
09 16:35 SW 9 10.00 Overcast BKN048 OVC050 73.4 57.2 57% 29.83 0.0
09 16:15 SW 7 10.00 Overcast BKN044 OVC050 75.2 57.2 54% 78 29.83 0.0
09 15:55 SW 9 10.00 Overcast BKN044 OVC050 75.2 57.2 54% 78 29.84 0.0
09 15:35 SW 13 G 23 10.00 Mostly Cloudy FEW044 BKN050 BKN110 75.2 57.2 54% 78 29.84 0.0
09 15:15 SW 7 10.00 Partly Cloudy SCT065 SCT075 SCT110 75.2 57.2 54% 78 29.84 0.0
09 14:55 W 8 10.00 Mostly Cloudy BKN065 BKN075 73.4 55.4 53% 29.85 0.0
09 14:35 W 5 10.00 Light Rain OVC065 73.4 57.2 57% 29.86 0.0
09 14:15 SW 8 10.00 Overcast OVC075 73.4 53.6 50% 29.87 0.0
09 13:55 SW 13 10.00 Mostly Cloudy SCT075 BKN085 73.4 53.6 76.6 58.5 50% 29.87 0.0
09 13:35 SW 9 10.00 Fair CLR 75.2 55.4 50% 78 29.86 0.0
09 13:15 S 9 10.00 Fair CLR 75.2 53.6 47% 78 29.87 0.0
09 12:55 SW 9 10.00 Fair CLR 73.4 53.6 50% 29.87 0.0
09 12:35 SW 10 10.00 Fair CLR 71.6 53.6 53% 29.88 0.0
09 12:15 S 8 10.00 Fair CLR 71.6 53.6 53% 29.88 0.0
09 11:55 S 10 10.00 Fair CLR 69.8 55.4 60% 29.9 0.0
09 11:35 SW 7 10.00 Partly Cloudy SCT090 68 55.4 64% 29.92 0.0
09 11:15 SW 9 10.00 Mostly Cloudy SCT090 BKN120 68 55.4 64% 29.93 0.0
09 10:55 SW 8 10.00 Partly Cloudy FEW038 FEW060 SCT110 69.8 55.4 60% 29.93 0.0
09 10:35 S 8 10.00 Mostly Cloudy FEW040 SCT070 BKN110 68 55.4 64% 29.92 0.0
09 10:15 SW 9 10.00 Fair CLR 68 55.4 64% 29.94 0.0
09 09:55 SW 9 10.00 Fair CLR 68 57.2 69% 29.95 0.0
09 09:35 SW 8 10.00 Fair CLR 66.2 57.2 73% 29.94 0.0
09 09:15 S 6 10.00 Fair CLR 66.2 57.2 73% 29.94 0.0
09 08:55 Vrbl 2 10.00 Fair CLR 62.6 57.2 83% 29.95 0.0
09 08:35 S 3 10.00 Fair CLR 62.6 57.2 83% 29.95 0.0
09 08:15 Vrbl 2 10.00 Fair CLR 60.8 55.4 83% 29.95 0.0
09 07:55 Calm 10.00 Fair CLR 59 55.4 59.4 51.3 88% 29.95 0.0
09 07:35 E 1 10.00 Fair CLR 57.2 53.6 88% 29.95 0.0
09 07:15 Vrbl 1 10.00 Fair CLR 55.4 51.8 88% 29.95 0.0
09 06:55 E 1 10.00 Fair CLR 53.6 51.8 94% 29.94 0.0
09 06:35 NE 2 10.00 Fair CLR 51.8 51.8 100% 29.94 0.0
09 06:15 E 1 9.00 Fair CLR 51.8 51.8 100% 29.93 0.0
09 05:55 SE 2 7.00 Fog/Mist CLR 51.8 51.8 100% 29.93 0.0
09 05:35 NE 1 2.00 Fog/Mist CLR 51.8 51.8 100% 29.94 0.0
09 05:15 N 1 8.00 Fair CLR 51.8 50 94% 29.95 0.0
09 04:55 NE 1 10.00 Fair CLR 53.6 51.8 94% 29.95 0.0
09 04:35 NE 1 10.00 Fair CLR 53.6 51.8 94% 29.95 0.0
09 04:15 NE 2 10.00 Fair CLR 53.6 51.8 94% 29.95 0.0
09 03:55 NE 2 10.00 Fair CLR 55.4 51.8 88% 29.95 0.0
09 03:35 SE 2 10.00 Fair CLR 57.2 51.8 82% 29.96 0.0
09 03:15 E 3 10.00 Fair CLR 55.4 51.8 88% 29.96 0.0
09 02:55 SE 3 10.00 Fair CLR 57.2 53.6 88% 29.96 0.0
09 02:35 SE 3 10.00 Fair CLR 59 53.6 82% 29.97 0.0
09 02:15 S 3 10.00 Fair CLR 57.2 53.6 88% 29.99 0.0
09 01:55 S 3 10.00 Fair CLR 59 53.6 67.6 57 82% 29.99 0.0
09 01:35 S 5 10.00 Fair CLR 57.2 53.6 88% 29.99 0.0
09 01:15 S 5 10.00 Fair CLR 59 51.8 77% 29.99 0.0
09 00:55 S 5 10.00 Fair CLR 59 51.8 77% 30 0.0
09 00:35 S 6 10.00 Fair CLR 59 51.8 77% 30 0.0
09 00:15 S 6 10.00 Fair CLR 59 51.8 77% 29.99 0.0
08 23:55 S 7 10.00 Fair CLR 60.8 51.8 72% 30 0.0
08 23:35 S 8 10.00 Fair CLR 60.8 51.8 72% 30 0.0
08 23:15 S 7 10.00 Fair CLR 60.8 51.8 72% 30 0.0
08 22:55 SW 9 10.00 Fair CLR 62.6 50 64% 30 0.0
08 22:35 S 10 10.00 Fair CLR 62.6 50 64% 30.01 0.0
08 22:15 S 10 10.00 Fair CLR 62.6 48.2 60% 30.01 0.0
08 21:55 S 10 10.00 Fair CLR 62.6 50 64% 30.01 0.0
08 21:35 S 12 10.00 Fair CLR 64.4 51.8 64% 30 0.0
08 21:15 S 12 10.00 Fair CLR 64.4 51.8 64% 29.99 0.0
08 20:55 S 10 10.00 Fair CLR 66.2 51.8 60% 29.98 0.0
08 20:35 S 12 10.00 Fair CLR 66.2 51.8 60% 29.98 0.0
08 20:15 S 12 G 17 10.00 Fair CLR 68 50 53% 29.97 0.0
08 19:55 S 6 10.00 Fair CLR 66.2 50 72.9 66.9 56% 29.96 0.0
08 19:35 S 6 10.00 Fair CLR 68 48.2 49% 29.96 0.0
08 18:55 S 6 10.00 Fair CLR 69.8 46.4 43% 29.95 0.0
08 18:35 SW 7 10.00 Fair CLR 69.8 46.4 43% 29.95 0.0
08 18:15 S 7 10.00 A Few Clouds FEW060 69.8 44.6 40% 29.95 0.0
08 17:55 SW 8 10.00 A Few Clouds FEW060 71.6 44.6 38% 29.95 0.0
08 17:35 SE 7 10.00 Fair CLR 71.6 44.6 38% 29.95 0.0
08 17:15 S 9 10.00 A Few Clouds FEW065 71.6 44.6 38% 29.96 0.0
08 16:55 SW 6 10.00 Fair CLR 71.6 42.8 36% 29.97 0.0
08 16:35 Vrbl 6 10.00 A Few Clouds FEW060 71.6 42.8 36% 29.96 0.0
08 16:15 S 8 10.00 Partly Cloudy SCT060 71.6 42.8 36% 29.97 0.0
08 15:35 Vrbl 2 10.00 Partly Cloudy SCT060 69.8 42.8 38% 29.98 0.0
08 15:15 Vrbl 1 10.00 A Few Clouds FEW060 68 42.8 40% 29.99 0.0
08 14:55 S 9 10.00 Fair CLR 69.8 44.6 40% 30 0.0
08 14:35 Vrbl 3 10.00 Partly Cloudy SCT060 69.8 42.8 38% 30 0.0
08 14:15 SW 6 10.00 A Few Clouds FEW060 69.8 44.6 40% 30.01 0.0
08 13:35 Vrbl 3 10.00 Fair CLR 68 44.6 43% 30.01 0.0
08 13:15 Vrbl 2 10.00 Fair CLR 68 44.6 43% 30.02 0.0
08 12:55 N 7 10.00 Fair CLR 68 42.8 40% 30.03 0.0
08 12:35 Vrbl 2 10.00 Fair CLR 66.2 42.8 43% 30.04 0.0
08 12:15 Vrbl 7 10.00 Fair CLR 66.2 44.6 46% 30.04 0.0
08 11:55 N 8 10.00 Fair CLR 66.2 44.6 46% 30.05 0.0
08 11:35 Vrbl 5 10.00 Fair CLR 64.4 42.8 46% 30.05 0.0
08 11:15 E 5 10.00 Fair CLR 64.4 44.6 49% 30.05 0.0
08 10:55 NE 6 10.00 Fair CLR 64.4 46.4 52% 30.05 0.0
08 10:35 N 9 10.00 Fair CLR 62.6 46.4 56% 30.05 0.0
08 10:15 NE 9 10.00 Fair CLR 62.6 48.2 60% 30.05 0.0
08 09:35 NE 10 10.00 Fair CLR 60.8 50 68% 30.04 0.0
08 09:15 N 10 10.00 A Few Clouds FEW010 FEW014 59 51.8 77% 30.04 0.0
08 08:55 N 8 10.00 A Few Clouds FEW010 57.2 51.8 82% 30.04 0.0
08 08:35 N 8 10.00 A Few Clouds FEW010 55.4 51.8 88% 30.03 0.0
08 08:15 N 3 10.00 Fair CLR 55.4 51.8 88% 30.03 0.0
08 07:55 NW 6 10.00 Fair CLR 53.6 51.8 53.6 47.8 94% 30.02 0.0
08 07:35 N 7 10.00 Fair CLR 53.6 50 88% 30.01 0.0
08 07:15 NW 3 10.00 Fair CLR 51.8 50 94% 30 0.0
08 06:55 NW 2 9.00 Fair CLR 50 50 100% 30 0.0
08 06:35 NW 2 4.00 Fog/Mist CLR 48.2 48.2 100% 29.98 0.0
08 06:15 N 3 6.00 Fog/Mist CLR 48.2 48.2 100% 29.97 0.0
08 05:55 NW 3 10.00 Fair CLR 50 50 100% 29.97 0.0
08 05:35 NW 3 10.00 A Few Clouds FEW005 50 50 100% 29.97 0.0
08 05:15 NW 3 10.00 A Few Clouds FEW005 50 50 100% 29.96 0.0
08 04:55 NW 5 10.00 Fair CLR 51.8 50 94% 29.96 0.0
08 04:35 NW 5 10.00 Fair CLR 51.8 50 94% 29.95 0.0
08 04:15 NW 3 10.00 Partly Cloudy SCT007 51.8 50 94% 29.94 0.0
08 03:55 NW 2 10.00 Overcast OVC007 51.8 50 94% 29.94 0.0
08 03:35 N 5 10.00 Overcast OVC007 51.8 50 94% 29.94 0.0
08 03:15 Vrbl 6 10.00 Overcast OVC007 53.6 51.8 94% 29.93 0.0
08 02:55 NW 5 10.00 Overcast BKN005 BKN013 OVC090 53.6 51.8 94% 29.94 0.0
08 02:35 NW 5 10.00 Mostly Cloudy SCT005 SCT010 BKN090 53.6 51.8 94% 29.93 0.0
08 02:15 NW 3 10.00 Mostly Cloudy SCT008 BKN090 BKN110 53.6 51.8 94% 29.93 0.0
08 01:55 NW 3 10.00 Mostly Cloudy FEW008 BKN080 BKN110 53.6 51.8 54.1 52.9 94% 29.92 0.0
08 01:35 NW 2 10.00 Mostly Cloudy BKN080 BKN120 53.6 51.8 94% 29.93 0.0
08 01:15 NW 3 10.00 Overcast OVC080 53.6 51.8 94% 29.93 0.0
08 00:55 NW 2 10.00 Overcast OVC070 53.6 51.8 94% 29.92 0.0
08 00:35 NW 5 10.00 Overcast BKN070 BKN080 OVC110 53.6 51.8 94% 29.92 0.0
08 00:15 NW 3 10.00 Overcast SCT070 OVC110 53.6 51.8 94% 29.91 0.0
07 23:55 N 3 10.00 Overcast OVC075 53.6 51.8 94% 29.9 0.0 0.01
07 23:35 Vrbl 3 10.00 Overcast OVC075 53.6 51.8 94% 29.9 0.0
07 23:15 Calm 10.00 Overcast BKN075 OVC100 53.6 51.8 94% 29.89 0.0
07 22:55 NW 5 10.00 Overcast FEW055 BKN085 OVC110 53.6 51.8 94% 29.89 0.0
07 22:35 N 5 10.00 Overcast FEW055 BKN075 OVC085 53.6 51.8 94% 29.89 0.0
07 22:15 N 3 10.00 Light Rain BKN075 BKN085 OVC100 53.6 51.8 94% 29.88 0.0
07 21:55 Vrbl 3 10.00 Light Rain BKN050 OVC090 53.6 51.8 94% 29.87 0.0 0.01
07 21:35 N 9 10.00 Overcast SCT041 OVC048 53.6 50 88% 29.88 0.0
07 21:15 NE 3 10.00 Overcast SCT026 BKN037 OVC042 53.6 50 88% 29.86 0.0
07 20:55 NE 6 10.00 Overcast OVC024 53.6 50 88% 29.85 0.0
07 20:35 NE 10 10.00 Overcast OVC024 53.6 50 88% 29.85 0.0
07 20:15 NE 9 10.00 Overcast OVC024 53.6 50 88% 29.84 0.0
07 19:55 NE 9 10.00 Overcast SCT012 SCT019 OVC024 53.6 50 70.3 53.8 88% 29.83 0.0
07 19:35 NE 12 5.00 Fog/Mist OVC007 53.6 51.8 94% 29.84 0.0
07 19:15 N 12 G 18 9.00 Overcast OVC009 53.6 51.8 94% 29.83 0.0
07 18:55 N 13 G 20 10.00 Overcast OVC009 55.4 51.8 88% 29.82 0.0
07 18:35 N 14 10.00 Overcast BKN009 BKN014 OVC018 55.4 51.8 88% 29.82 0.0
07 18:15 N 15 G 23 10.00 Overcast OVC011 55.4 51.8 88% 29.81 0.0
07 17:55 N 14 10.00 Overcast OVC009 57.2 53.6 88% 29.8 0.0
07 17:35 N 13 10.00 Overcast OVC009 57.2 53.6 88% 29.79 0.0
07 17:15 NE 15 10.00 Overcast OVC009 57.2 53.6 88% 29.78 0.0
07 16:55 NE 13 10.00 Overcast FEW005 OVC009 57.2 55.4 94% 29.76 0.0
07 16:35 NE 13 10.00 Overcast OVC005 57.2 57.2 100% 29.77 0.0
07 16:15 N 13 G 17 10.00 Overcast OVC003 59 57.2 94% 29.77 0.0
07 15:55 N 12 10.00 Overcast OVC003 60.8 59 94% 29.74 0.0
07 15:35 NW 14 10.00 Overcast OVC003 62.6 60.8 94% 29.75 0.0
07 15:15 NW 8 10.00 Overcast SCT003 BKN010 OVC026 66.2 64.4 94% 29.74 0.0
07 14:55 SW 6 8.00 Overcast FEW006 BKN013 OVC026 69.8 68 94% 29.73 0.0 0.01
07 14:35 S 5 10.00 Overcast SCT010 BKN016 OVC020 69.8 68 94% 29.74 0.0
07 14:15 SW 6 10.00 Light Rain SCT017 BKN027 OVC032 69.8 68 94% 29.74 0.0
07 13:55 S 5 4.00 Light Rain Fog/Mist SCT008 BKN013 OVC034 68 68 71.8 67.8 100% 29.75 0.0 0.09
07 13:35 SW 14 2.50 Heavy Rain Fog/Mist SCT010 BKN016 OVC047 68 66.2 94% 29.78 0.0
07 13:15 SW 14 G 18 9.00 Overcast BKN014 OVC026 69.8 66.2 88% 29.79 0.0
07 12:55 SW 12 10.00 Light Rain SCT011 BKN019 OVC065 69.8 68 94% 29.78 0.0 0.04
07 12:35 SW 10 10.00 Light Rain FEW015 BKN065 OVC085 69.8 68 94% 29.79 0.0
07 12:15 SW 6 6.00 Light Rain Fog/Mist SCT016 BKN075 OVC100 69.8 68 94% 29.79 0.0
07 11:55 SW 7 7.00 Light Rain BKN016 BKN021 OVC036 69.8 68 94% 29.81 0.0
07 11:35 SW 7 10.00 Light Rain BKN016 OVC021 69.8 68 94% 29.81 0.0
07 11:15 SW 10 10.00 Overcast BKN012 OVC018 71.6 68 88% 29.81 0.0
07 10:55 SW 12 10.00 Overcast SCT013 BKN019 OVC090 71.6 68 88% 29.8 0.0
07 10:35 SW 8 10.00 Overcast FEW021 SCT080 OVC095 69.8 68 94% 29.8 0.0
07 10:15 SW 6 10.00 Overcast BKN070 OVC095 69.8 66.2 88% 29.8 0.0
07 09:55 SW 7 10.00 Overcast FEW009 FEW017 OVC085 69.8 68 94% 29.8 0.0
07 09:35 SW 7 10.00 Overcast SCT011 BKN017 OVC085 69.8 66.2 88% 29.8 0.0
07 09:15 S 10 10.00 Overcast FEW010 SCT013 OVC019 69.8 68 94% 29.81 0.0
07 08:55 SW 10 10.00 Overcast BKN017 BKN022 OVC027 68 66.2 94% 29.82 0.0 0.02
Date Time (edt) Wind (mph) Vis. (mi.) Weather Sky Cond. Air Dwpt Max. Min. Relative Humidity Wind Chill (°F) Heat Index (°F) altimeter (in) sea level (mb) 1 hr 3 hr 6 hr
6 hour
Temperature (ºF) Pressure Precipitation (in)